Aeroporto :
LOGIN :

Iscrizione | Disclaimer

   EN    FR    IT 

 










Sommario :    VFR   VFR Marginale   IFR   IFR Intensivo   IFR Molto Intensivo
Visibilità : 
Base nubi : 
>= 8 km
>= 3000ft
5 / 8 km
1000 / 3000 ft
1500m / 5 km
500 / 1000 ft
800 / 1500m
200 / 500 ft
< 800m
< 200 ft
Simboli :   Temporali  Nebbia  Neve Forte  Precipitazioni Forti  Vento > 20 kt
SIGMETs :   Varie  Temporali  Ghiacco  Turbolenza  Onda orograficha  Ceneri Vulcaniche






- Altitudine del aeroporto : 364 ft


LFAQ - Albert Bray

ULTIMO METAR :
  • 030800Z AUTO 27008KT 240V310 9999 SCT020 BKN026 BKN056 17/11 Q1020 NOSIG

METARs OBSOLETI :
  • 030730Z AUTO 28009KT 9999 SCT015 BKN056 16/12 Q1020 NOSIG
  • 030700Z AUTO 27007KT CAVOK 16/13 Q1020 TEMPO BKN012
  • 030630Z AUTO 28007KT CAVOK 14/12 Q1020 TEMPO BKN012
  • 030600Z AUTO 27007KT CAVOK 14/12 Q1020 TEMPO BKN012
  • 030530Z AUTO 26006KT 9999 BKN017 OVC056 13/12 Q1020

TAF TAF LFAQ
Valido dal 03 a 06 ore il 03 a 15 ore UTC


030500Z 0306/0315 27008KT CAVOK
TEMPO 0306/0308 BKN012



MetMap, La meteo Aeronautica in un colpo d'occhio ! - Copyright ORBIFLY Dicembre 2007 - Disclaimer

ORBIFLY MET'MAP TEAM :

Programmazione e sviluppo : Alexandra Zaïnal
Concezione : Baudouin d'Aumeries
Supporto tecnico e logistico : Manuel Goepfert
Aiuto : Marc-Olivier Méhu
Aiuto per la traduzione : Arnaldo La Scala




FONTI E CREDITI :

   NOAA